createdAt,value
2022-09-15T00:01:56.803Z,78.63
2022-09-15T00:04:39.887Z,78.58
2022-09-15T00:07:24.384Z,78.33
2022-09-15T00:10:08.970Z,78.52
2022-09-15T00:12:52.011Z,78.59
2022-09-15T00:15:34.952Z,78.66
2022-09-15T00:18:18.559Z,78.71
2022-09-15T00:21:05.911Z,78.67
2022-09-15T00:23:51.035Z,78.22
2022-09-15T00:26:34.192Z,78.57
2022-09-15T00:29:17.265Z,78.12
2022-09-15T00:32:00.213Z,78.63
2022-09-15T00:34:43.320Z,78.28
2022-09-15T00:37:27.179Z,78.29
2022-09-15T00:40:12.036Z,78.39
2022-09-15T00:42:55.122Z,78.05
2022-09-15T00:45:38.180Z,78.48
2022-09-15T00:48:23.503Z,78.38
2022-09-15T00:51:09.562Z,78.46
2022-09-15T00:53:53.876Z,78.36
2022-09-15T00:56:39.699Z,78.26
2022-09-15T00:59:25.621Z,78.22
2022-09-15T01:02:14.231Z,78.32
2022-09-15T01:04:59.020Z,78.23
2022-09-15T01:07:47.217Z,78.38
2022-09-15T01:10:31.982Z,78.54
2022-09-15T01:13:16.186Z,79.03
2022-09-15T01:16:08.055Z,78.19
2022-09-15T01:18:57.432Z,78.39
2022-09-15T01:21:46.245Z,78.96
2022-09-15T01:24:59.519Z,79.23
2022-09-15T01:28:01.515Z,79.09
2022-09-15T01:30:51.478Z,79.14
2022-09-15T01:33:43.380Z,78.78
2022-09-15T01:36:35.001Z,78.92
2022-09-15T01:39:25.107Z,79.06
2022-09-15T01:42:12.088Z,78.69
2022-09-15T01:45:00.087Z,79.28
2022-09-15T01:47:47.298Z,79.40
2022-09-15T01:50:34.022Z,79.26
2022-09-15T01:53:20.036Z,79.51
2022-09-15T01:56:06.836Z,79.50
2022-09-15T01:58:51.824Z,79.54
2022-09-15T02:01:43.222Z,79.31
2022-09-15T02:04:34.875Z,79.35
2022-09-15T02:07:27.654Z,79.22
2022-09-15T02:10:18.227Z,79.27
2022-09-15T02:13:07.717Z,79.44
2022-09-15T02:15:57.193Z,79.84
2022-09-15T02:18:45.311Z,80.18
2022-09-15T02:21:36.309Z,79.87
2022-09-15T02:24:24.290Z,79.80
2022-09-15T02:27:11.357Z,79.93
2022-09-15T02:29:59.012Z,79.66
2022-09-15T02:32:48.131Z,79.91
2022-09-15T02:35:34.863Z,79.76
2022-09-15T02:38:20.124Z,80.06
2022-09-15T02:41:03.830Z,80.15
2022-09-15T02:43:47.848Z,80.19
2022-09-15T02:46:31.163Z,79.94
2022-09-15T02:49:14.191Z,79.82
2022-09-15T02:51:57.219Z,80.49
2022-09-15T02:54:41.486Z,80.08
2022-09-15T02:57:24.402Z,80.08
2022-09-15T03:00:14.835Z,80.44
2022-09-15T03:02:58.358Z,80.56
2022-09-15T03:05:41.380Z,80.43
2022-09-15T03:08:24.335Z,80.92
2022-09-15T03:11:10.881Z,80.90
2022-09-15T03:13:55.716Z,81.09
2022-09-15T03:16:38.513Z,81.46
2022-09-15T03:19:21.483Z,81.30
2022-09-15T03:22:04.912Z,81.25
2022-09-15T03:24:48.002Z,81.51
2022-09-15T03:27:32.619Z,81.23
2022-09-15T03:30:16.089Z,81.10
2022-09-15T03:32:59.134Z,81.01
2022-09-15T03:35:42.065Z,81.23
2022-09-15T03:38:25.204Z,81.48
2022-09-15T03:41:10.979Z,81.55
2022-09-15T03:43:55.487Z,82.15
2022-09-15T03:46:38.462Z,81.76
2022-09-15T03:49:21.582Z,81.91
2022-09-15T03:52:04.607Z,82.38
2022-09-15T03:54:49.251Z,81.95
2022-09-15T03:57:32.140Z,82.32
2022-09-15T04:00:16.954Z,82.31
2022-09-15T04:02:59.869Z,81.82
2022-09-15T04:05:43.253Z,82.23
2022-09-15T04:08:26.336Z,82.12
2022-09-15T04:11:10.620Z,81.88
2022-09-15T04:13:54.568Z,81.83
2022-09-15T04:16:39.191Z,81.86
2022-09-15T04:19:22.209Z,81.69
2022-09-15T04:22:05.403Z,81.89
2022-09-15T04:24:48.744Z,81.26
2022-09-15T04:27:34.401Z,81.35
2022-09-15T04:30:17.407Z,81.08
2022-09-15T04:33:01.692Z,81.31
2022-09-15T04:35:44.699Z,80.99
2022-09-15T04:38:27.638Z,80.94
2022-09-15T04:41:11.438Z,81.41
2022-09-15T04:43:54.622Z,81.69
2022-09-15T04:46:37.724Z,81.29
2022-09-15T04:49:22.140Z,81.54
2022-09-15T04:52:09.464Z,81.88
2022-09-15T04:54:52.682Z,81.65
2022-09-15T04:57:35.627Z,82.19
2022-09-15T05:00:18.817Z,82.38
2022-09-15T05:03:02.039Z,81.97
2022-09-15T05:05:49.003Z,82.54
2022-09-15T05:08:32.035Z,82.54
2022-09-15T05:11:15.153Z,82.90
2022-09-15T05:13:58.247Z,83.33
2022-09-15T05:16:41.403Z,83.42
2022-09-15T05:19:24.625Z,82.92
2022-09-15T05:22:08.985Z,83.07
2022-09-15T05:24:52.054Z,82.73
2022-09-15T05:27:35.047Z,83.10
2022-09-15T05:30:36.838Z,83.10
2022-09-15T05:33:21.914Z,83.05
2022-09-15T05:36:05.631Z,83.42
2022-09-15T05:38:50.083Z,83.26
2022-09-15T05:41:33.162Z,83.50
2022-09-15T05:44:16.463Z,83.20
2022-09-15T05:46:59.636Z,83.09
2022-09-15T05:49:42.650Z,83.09
2022-09-15T05:52:25.569Z,82.90
2022-09-15T05:55:10.653Z,83.27
2022-09-15T05:57:53.713Z,83.06
2022-09-15T06:00:37.102Z,83.42
2022-09-15T06:03:21.088Z,83.11
2022-09-15T06:06:05.730Z,83.51
2022-09-15T06:08:54.212Z,83.54
2022-09-15T06:11:41.937Z,83.15
2022-09-15T06:14:24.938Z,83.38
2022-09-15T06:17:07.976Z,82.94
2022-09-15T06:19:50.918Z,83.35
2022-09-15T06:22:33.979Z,83.20
2022-09-15T06:25:17.162Z,83.02
2022-09-15T06:28:01.483Z,83.24
2022-09-15T06:30:48.943Z,82.90
2022-09-15T06:33:32.058Z,83.19
2022-09-15T06:36:16.282Z,83.14
2022-09-15T06:39:00.082Z,82.81
2022-09-15T06:42:01.430Z,83.10
2022-09-15T06:44:46.499Z,83.16
2022-09-15T06:47:33.881Z,82.66
2022-09-15T06:50:16.934Z,82.76
2022-09-15T06:52:59.870Z,83.06
2022-09-15T06:55:42.895Z,82.99
2022-09-15T06:58:25.811Z,82.82
2022-09-15T07:01:12.347Z,82.67
2022-09-15T07:03:56.563Z,82.82
2022-09-15T07:06:40.851Z,83.07
2022-09-15T07:09:23.781Z,82.84
2022-09-15T07:12:07.014Z,83.16
2022-09-15T07:14:49.980Z,82.85
2022-09-15T07:17:34.219Z,82.87
2022-09-15T07:20:17.367Z,83.18
2022-09-15T07:23:00.292Z,82.98
2022-09-15T07:25:44.150Z,83.00
2022-09-15T07:28:27.090Z,82.93
2022-09-15T07:31:12.303Z,82.70
2022-09-15T07:33:57.218Z,83.14
2022-09-15T07:36:40.140Z,82.97
2022-09-15T07:39:23.187Z,82.88
2022-09-15T07:42:06.410Z,82.69
2022-09-15T07:44:49.269Z,82.60
2022-09-15T07:47:32.285Z,82.55
2022-09-15T07:50:16.771Z,82.70
2022-09-15T07:52:59.679Z,83.17
2022-09-15T07:55:42.712Z,82.71
2022-09-15T07:58:26.008Z,82.92
2022-09-15T08:01:12.058Z,83.00
2022-09-15T08:03:55.075Z,83.09
2022-09-15T08:06:39.345Z,83.01
2022-09-15T08:09:22.310Z,82.79
2022-09-15T08:12:06.783Z,82.87
2022-09-15T08:14:49.684Z,82.90
2022-09-15T08:17:32.614Z,83.19
2022-09-15T08:20:15.626Z,82.73
2022-09-15T08:23:00.338Z,82.90
2022-09-15T08:25:43.233Z,83.04
2022-09-15T08:28:26.887Z,82.93
2022-09-15T08:31:11.510Z,82.91
2022-09-15T08:33:55.883Z,82.67
2022-09-15T08:36:39.067Z,82.60
2022-09-15T08:39:23.644Z,82.54
2022-09-15T08:42:07.390Z,83.12
2022-09-15T08:44:55.471Z,82.92
2022-09-15T08:47:42.181Z,82.91
2022-09-15T08:50:29.864Z,83.36
2022-09-15T08:53:18.146Z,83.15
2022-09-15T08:56:09.997Z,82.92
2022-09-15T08:58:53.195Z,82.63
2022-09-15T09:01:47.971Z,82.70
2022-09-15T09:04:49.085Z,83.06
2022-09-15T09:08:02.211Z,82.62
2022-09-15T09:10:52.780Z,83.34
2022-09-15T09:13:44.034Z,82.85
2022-09-15T09:16:39.427Z,82.89
2022-09-15T09:19:35.988Z,83.12
2022-09-15T09:22:23.983Z,82.69
2022-09-15T09:25:26.136Z,83.21
2022-09-15T09:28:25.041Z,82.94
2022-09-15T09:31:21.043Z,83.35
2022-09-15T09:34:16.790Z,82.96
2022-09-15T09:37:01.553Z,82.87
2022-09-15T09:39:44.345Z,83.67
2022-09-15T09:42:31.205Z,83.18
2022-09-15T09:45:16.284Z,83.50
2022-09-15T09:48:04.401Z,83.37
2022-09-15T09:50:47.974Z,83.04
2022-09-15T09:53:32.785Z,83.14
2022-09-15T09:56:17.061Z,83.55
2022-09-15T09:59:01.416Z,82.73
2022-09-15T10:02:14.381Z,83.17
2022-09-15T10:05:19.626Z,82.58
2022-09-15T10:08:03.402Z,82.86
2022-09-15T10:10:54.100Z,82.66
2022-09-15T10:13:50.311Z,82.71
2022-09-15T10:16:34.389Z,82.67
2022-09-15T10:19:17.372Z,82.32
2022-09-15T10:22:02.884Z,82.43
2022-09-15T10:24:45.985Z,82.26
2022-09-15T10:27:31.997Z,82.07
2022-09-15T10:30:18.999Z,82.09
2022-09-15T10:33:19.789Z,81.80
2022-09-15T10:36:06.210Z,81.85
2022-09-15T10:38:57.396Z,81.75
2022-09-15T10:41:46.896Z,82.01
2022-09-15T10:44:39.314Z,81.74
2022-09-15T10:47:32.032Z,81.29
2022-09-15T10:50:22.262Z,81.57
2022-09-15T10:53:17.922Z,81.47
2022-09-15T10:56:13.303Z,81.09
2022-09-15T10:59:21.722Z,81.17
2022-09-15T11:02:33.785Z,81.01
2022-09-15T11:05:39.586Z,81.13
2022-09-15T11:08:59.581Z,81.20
2022-09-15T11:11:58.403Z,81.14
2022-09-15T11:14:53.031Z,81.64
2022-09-15T11:17:49.207Z,81.22
2022-09-15T11:20:40.744Z,80.82
2022-09-15T11:23:29.437Z,80.41
2022-09-15T11:26:18.369Z,80.46
2022-09-15T11:29:08.677Z,80.29
2022-09-15T11:31:57.464Z,79.98
2022-09-15T11:34:48.317Z,79.81
2022-09-15T11:37:39.181Z,79.64
2022-09-15T11:40:28.553Z,79.80
2022-09-15T11:43:19.703Z,79.41
2022-09-15T11:46:12.563Z,79.82
2022-09-15T11:49:00.889Z,80.10
2022-09-15T11:51:50.668Z,80.54
2022-09-15T11:54:41.275Z,80.74
2022-09-15T11:57:28.026Z,81.00
2022-09-15T12:00:14.668Z,80.90
2022-09-15T12:03:14.866Z,79.92
2022-09-15T12:06:01.962Z,80.14
2022-09-15T12:08:51.285Z,80.49
2022-09-15T12:11:37.834Z,80.26
2022-09-15T12:14:29.007Z,79.81
2022-09-15T12:17:19.650Z,80.11
2022-09-15T12:20:09.070Z,79.93
2022-09-15T12:22:58.793Z,80.44
2022-09-15T12:25:52.130Z,79.92
2022-09-15T12:28:41.128Z,78.87
2022-09-15T12:31:42.411Z,77.60
2022-09-15T12:34:37.410Z,77.73
2022-09-15T12:37:21.797Z,78.34
2022-09-15T12:40:08.071Z,78.15
2022-09-15T12:42:51.178Z,78.55
2022-09-15T12:45:36.874Z,78.79
2022-09-15T12:48:23.708Z,78.19
2022-09-15T12:51:10.815Z,78.21
2022-09-15T12:53:57.894Z,77.82
2022-09-15T12:56:40.873Z,78.08
2022-09-15T12:59:26.814Z,77.31
2022-09-15T13:02:45.186Z,77.76
2022-09-15T13:05:53.602Z,78.32
2022-09-15T13:08:49.294Z,77.67
2022-09-15T13:11:40.427Z,77.92
2022-09-15T13:14:29.318Z,78.16
2022-09-15T13:17:17.142Z,77.64
2022-09-15T13:20:08.934Z,77.10
2022-09-15T13:22:56.484Z,77.06
2022-09-15T13:25:44.874Z,76.65
2022-09-15T13:28:30.063Z,76.55
2022-09-15T13:31:29.997Z,76.21
2022-09-15T13:38:22.686Z,76.03
2022-09-15T13:41:42.971Z,76.24
2022-09-15T13:44:59.014Z,75.61
2022-09-15T13:47:55.944Z,75.79
2022-09-15T13:50:42.892Z,75.78
2022-09-15T13:53:42.660Z,75.55
2022-09-15T13:56:28.808Z,75.74
2022-09-15T13:59:18.135Z,75.20
2022-09-15T14:02:09.643Z,75.18
2022-09-15T14:04:52.843Z,75.04
2022-09-15T14:07:35.884Z,75.13
2022-09-15T14:10:24.198Z,75.38
2022-09-15T14:13:07.207Z,75.58
2022-09-15T14:16:01.543Z,75.37
2022-09-15T14:18:47.318Z,74.61
2022-09-15T14:21:33.083Z,74.82
2022-09-15T14:24:22.085Z,74.51
2022-09-15T14:27:10.814Z,74.80
2022-09-15T14:29:57.815Z,74.77
2022-09-15T14:32:46.683Z,74.83
2022-09-15T14:35:38.110Z,74.98
2022-09-15T14:38:23.688Z,74.87
2022-09-15T14:41:07.418Z,75.37
2022-09-15T14:43:50.316Z,75.52
2022-09-15T14:46:39.087Z,75.46
2022-09-15T14:49:22.714Z,74.91
2022-09-15T14:52:23.115Z,74.92
2022-09-15T14:55:13.479Z,74.92
2022-09-15T14:58:00.812Z,75.23
2022-09-15T15:00:52.995Z,74.66
2022-09-15T15:03:43.451Z,73.84
2022-09-15T15:06:31.775Z,74.05
2022-09-15T15:09:22.434Z,73.92
2022-09-15T15:12:08.472Z,74.31
2022-09-15T15:14:54.023Z,73.70
2022-09-15T15:17:38.928Z,74.37
2022-09-15T15:20:23.964Z,74.92
2022-09-15T15:23:17.860Z,74.83
2022-09-15T15:26:33.983Z,74.33
2022-09-15T15:29:40.381Z,74.60
2022-09-15T15:32:25.593Z,74.52
2022-09-15T15:35:18.746Z,74.41
2022-09-15T15:38:08.212Z,74.67
2022-09-15T15:41:01.244Z,74.78
2022-09-15T15:43:58.002Z,74.97
2022-09-15T15:46:49.853Z,74.74
2022-09-15T15:49:33.587Z,75.37
2022-09-15T15:52:16.581Z,75.32
2022-09-15T15:54:59.552Z,75.31
2022-09-15T15:57:42.464Z,75.55
2022-09-15T16:00:33.042Z,75.38
2022-09-15T16:03:17.834Z,75.71
2022-09-15T16:06:02.984Z,75.48
2022-09-15T16:08:47.318Z,75.91
2022-09-15T16:11:30.298Z,75.88
2022-09-15T16:14:14.425Z,75.97
2022-09-15T16:16:58.792Z,75.92
2022-09-15T16:19:41.851Z,76.30
2022-09-15T16:22:24.850Z,76.11
2022-09-15T16:25:15.823Z,76.23
2022-09-15T16:27:59.931Z,76.36
2022-09-15T16:30:43.049Z,76.51
2022-09-15T16:33:28.077Z,76.12
2022-09-15T16:36:13.407Z,76.30
2022-09-15T16:38:56.348Z,76.57
2022-09-15T16:41:40.379Z,76.66
2022-09-15T16:44:23.324Z,76.32
2022-09-15T16:47:07.198Z,76.85
2022-09-15T16:49:52.642Z,76.37
2022-09-15T16:52:35.578Z,76.80
2022-09-15T16:55:24.762Z,77.23
2022-09-15T16:58:08.390Z,77.12
2022-09-15T17:00:53.676Z,76.45
2022-09-15T17:03:36.842Z,77.28
2022-09-15T17:06:22.157Z,77.07
2022-09-15T17:09:05.508Z,77.51
2022-09-15T17:11:48.361Z,76.99
2022-09-15T17:14:31.299Z,76.90
2022-09-15T17:17:24.829Z,77.11
2022-09-15T17:20:08.855Z,77.07
2022-09-15T17:22:54.085Z,77.03
2022-09-15T17:25:41.197Z,76.84
2022-09-15T17:28:26.181Z,76.87
2022-09-15T17:31:14.423Z,76.96
2022-09-15T17:33:58.063Z,76.61
2022-09-15T17:36:41.042Z,76.76
2022-09-15T17:39:25.403Z,76.96
2022-09-15T17:42:10.431Z,76.66
2022-09-15T17:44:53.341Z,76.76
2022-09-15T17:47:37.165Z,76.92
2022-09-15T17:50:22.178Z,76.83
2022-09-15T17:53:12.786Z,76.55
2022-09-15T17:55:57.226Z,76.47
2022-09-15T17:58:40.169Z,76.17
2022-09-15T18:01:23.150Z,76.58
2022-09-15T18:04:06.524Z,76.65
2022-09-15T18:06:49.484Z,76.89
2022-09-15T18:09:32.533Z,77.17
2022-09-15T18:12:17.133Z,77.31
2022-09-15T18:15:00.084Z,77.27
2022-09-15T18:17:43.618Z,77.41
2022-09-15T18:20:28.483Z,77.52
2022-09-15T18:23:16.462Z,77.43
2022-09-15T18:25:59.627Z,77.76
2022-09-15T18:28:43.922Z,77.55
2022-09-15T18:31:27.007Z,77.45
2022-09-15T18:34:10.345Z,77.42
2022-09-15T18:36:53.379Z,77.33
2022-09-15T18:39:37.378Z,77.35
2022-09-15T18:42:20.320Z,77.07
2022-09-15T18:45:05.465Z,76.65
2022-09-15T18:47:49.173Z,76.87
2022-09-15T18:50:32.178Z,77.19
2022-09-15T18:53:15.171Z,76.72
2022-09-15T18:55:58.045Z,76.92
2022-09-15T18:58:41.419Z,76.98
2022-09-15T19:01:25.886Z,77.18
2022-09-15T19:04:08.984Z,76.87
2022-09-15T19:06:51.940Z,77.03
2022-09-15T19:09:35.083Z,76.84
2022-09-15T19:12:18.072Z,76.98
2022-09-15T19:15:00.942Z,76.75
2022-09-15T19:17:45.457Z,76.73
2022-09-15T19:20:29.186Z,76.93
2022-09-15T19:23:12.146Z,77.10
2022-09-15T19:25:55.304Z,76.99
2022-09-15T19:28:38.202Z,77.05
2022-09-15T19:31:21.793Z,77.18
2022-09-15T19:34:06.380Z,77.32
2022-09-15T19:36:49.324Z,77.40
2022-09-15T19:39:32.318Z,77.70
2022-09-15T19:45:03.831Z,77.40
2022-09-15T19:47:46.829Z,77.72
2022-09-15T19:50:31.111Z,77.71
2022-09-15T19:53:14.008Z,77.75
2022-09-15T19:55:57.288Z,77.58
2022-09-15T19:58:40.442Z,77.59
2022-09-15T20:01:24.288Z,77.69
2022-09-15T20:04:08.210Z,77.66
2022-09-15T20:06:52.666Z,77.59
2022-09-15T20:09:35.708Z,77.78
2022-09-15T20:12:18.630Z,77.99
2022-09-15T20:15:01.560Z,77.80
2022-09-15T20:17:44.457Z,77.91
2022-09-15T20:20:27.391Z,78.04
2022-09-15T20:23:11.730Z,77.99
2022-09-15T20:25:58.703Z,78.21
2022-09-15T20:28:42.443Z,78.04
2022-09-15T20:31:27.099Z,78.10
2022-09-15T20:34:10.185Z,78.13
2022-09-15T20:36:53.153Z,78.18
2022-09-15T20:39:38.127Z,78.29
2022-09-15T20:42:20.997Z,77.97
2022-09-15T20:45:04.246Z,78.08
2022-09-15T20:47:47.396Z,77.83
2022-09-15T20:50:32.087Z,77.83
2022-09-15T20:53:14.813Z,77.51
2022-09-15T20:55:59.957Z,77.87
2022-09-15T20:58:43.279Z,77.82
2022-09-15T21:01:28.617Z,77.93
2022-09-15T21:04:12.487Z,78.02
2022-09-15T21:06:55.471Z,77.77
2022-09-15T21:09:38.379Z,78.00
2022-09-15T21:12:22.687Z,78.07
2022-09-15T21:15:06.695Z,77.92
2022-09-15T21:17:49.896Z,77.77
2022-09-15T21:20:32.782Z,77.81
2022-09-15T21:23:17.376Z,77.97
2022-09-15T21:26:02.214Z,78.00
2022-09-15T21:28:47.220Z,78.10
2022-09-15T21:31:32.800Z,77.94
2022-09-15T21:34:16.999Z,77.94
2022-09-15T21:37:00.086Z,77.78
2022-09-15T21:39:43.134Z,77.92
2022-09-15T21:42:26.589Z,77.79
2022-09-15T21:45:11.530Z,78.03
2022-09-15T21:47:54.414Z,77.86
2022-09-15T21:50:37.477Z,77.53
2022-09-15T21:53:21.074Z,77.66
2022-09-15T21:56:05.105Z,77.58
2022-09-15T21:58:47.987Z,77.55
2022-09-15T22:01:33.886Z,77.63
2022-09-15T22:04:17.010Z,77.58
2022-09-15T22:06:59.923Z,77.63
2022-09-15T22:09:43.302Z,77.67
2022-09-15T22:12:26.300Z,77.46
2022-09-15T22:15:10.084Z,77.73
2022-09-15T22:17:54.740Z,77.70
2022-09-15T22:20:37.690Z,77.79
2022-09-15T22:23:20.635Z,77.80
2022-09-15T22:26:04.331Z,77.60
2022-09-15T22:28:47.836Z,77.63
2022-09-15T22:31:31.538Z,77.60
2022-09-15T22:34:15.861Z,77.98
2022-09-15T22:36:59.025Z,77.84
2022-09-15T22:39:58.619Z,77.78
2022-09-15T22:42:42.326Z,77.88
2022-09-15T22:45:25.305Z,77.75
2022-09-15T22:48:08.214Z,77.71
2022-09-15T22:50:52.465Z,77.74
2022-09-15T22:53:35.658Z,77.77
2022-09-15T22:56:19.898Z,77.33
2022-09-15T22:59:02.873Z,77.19
2022-09-15T23:01:45.949Z,77.22
2022-09-15T23:04:29.185Z,77.38
2022-09-15T23:07:14.459Z,77.81
2022-09-15T23:09:58.715Z,78.00
2022-09-15T23:12:42.015Z,78.51
2022-09-15T23:15:24.931Z,78.49
2022-09-15T23:18:07.873Z,78.51
2022-09-15T23:20:56.884Z,78.60
2022-09-15T23:23:43.211Z,79.12
2022-09-15T23:26:27.454Z,79.46
2022-09-15T23:29:10.619Z,79.22
2022-09-15T23:31:53.708Z,79.23
2022-09-15T23:34:36.748Z,79.00
2022-09-15T23:37:19.753Z,79.03
2022-09-15T23:40:04.623Z,78.90
2022-09-15T23:42:47.653Z,79.00
2022-09-15T23:45:30.664Z,79.29
2022-09-15T23:48:14.906Z,79.61
2022-09-15T23:50:58.241Z,79.72
2022-09-15T23:53:41.235Z,79.95
2022-09-15T23:56:25.658Z,80.07
2022-09-15T23:59:08.569Z,79.97
